createdAt,value
2023-07-03T00:00:16.072Z,5.90
2023-07-03T00:05:50.497Z,4.35
2023-07-03T00:08:37.027Z,5.18
2023-07-03T00:11:23.415Z,5.55
2023-07-03T00:14:09.403Z,5.47
2023-07-03T00:16:57.417Z,5.65
2023-07-03T00:19:43.731Z,5.30
2023-07-03T00:22:30.235Z,4.85
2023-07-03T00:25:16.605Z,6.20
2023-07-03T00:28:02.798Z,5.85
2023-07-03T00:30:49.727Z,6.38
2023-07-03T00:33:36.993Z,6.72
2023-07-03T00:36:23.357Z,5.28
2023-07-03T00:39:09.576Z,5.57
2023-07-03T00:41:55.842Z,6.88
2023-07-03T00:44:42.041Z,7.57
2023-07-03T00:47:28.603Z,5.50
2023-07-03T00:50:16.886Z,7.18
2023-07-03T00:53:06.275Z,5.60
2023-07-03T00:55:52.636Z,6.45
2023-07-03T00:58:38.827Z,4.88
2023-07-03T01:01:28.225Z,5.20
2023-07-03T01:04:16.740Z,5.25
2023-07-03T01:07:08.261Z,4.85
2023-07-03T01:09:57.158Z,5.53
2023-07-03T01:12:45.762Z,6.60
2023-07-03T01:15:35.329Z,5.10
2023-07-03T01:18:22.006Z,5.45
2023-07-03T01:21:11.608Z,5.28
2023-07-03T01:24:01.190Z,6.28
2023-07-03T01:26:48.650Z,6.53
2023-07-03T01:29:41.072Z,5.15
2023-07-03T01:32:30.389Z,4.57
2023-07-03T01:35:17.583Z,5.28
2023-07-03T01:38:04.088Z,7.40
2023-07-03T01:40:50.397Z,5.03
2023-07-03T01:43:38.366Z,7.28
2023-07-03T01:46:24.319Z,4.80
2023-07-03T01:49:13.523Z,5.18
2023-07-03T01:52:06.247Z,6.30
2023-07-03T01:54:57.437Z,5.82
2023-07-03T01:57:54.376Z,6.30
2023-07-03T02:00:47.827Z,4.72
2023-07-03T02:03:38.371Z,5.22
2023-07-03T02:06:27.377Z,4.78
2023-07-03T02:09:13.973Z,5.75
2023-07-03T02:12:07.006Z,4.85
2023-07-03T02:14:54.342Z,4.80
2023-07-03T02:17:41.703Z,5.20
2023-07-03T02:20:27.856Z,7.30
2023-07-03T02:23:16.804Z,5.70
2023-07-03T02:26:03.116Z,5.20
2023-07-03T02:28:49.279Z,6.60
2023-07-03T02:31:35.562Z,4.63
2023-07-03T02:34:23.112Z,5.13
2023-07-03T02:37:10.741Z,6.57
2023-07-03T02:39:58.663Z,5.13
2023-07-03T02:42:46.549Z,6.20
2023-07-03T02:45:35.615Z,4.35
2023-07-03T02:48:21.636Z,5.72
2023-07-03T02:51:09.926Z,5.25
2023-07-03T02:53:57.017Z,5.75
2023-07-03T02:56:43.052Z,5.90
2023-07-03T02:59:30.617Z,7.07
2023-07-03T03:02:17.469Z,5.25
2023-07-03T03:05:03.866Z,5.28
2023-07-03T03:07:51.378Z,6.70
2023-07-03T03:10:37.316Z,5.28
2023-07-03T03:13:23.788Z,6.68
2023-07-03T03:16:12.546Z,6.45
2023-07-03T03:18:59.095Z,7.32
2023-07-03T03:21:45.578Z,6.70
2023-07-03T03:24:32.901Z,7.80
2023-07-03T03:27:19.120Z,5.10
2023-07-03T03:30:05.510Z,5.43
2023-07-03T03:32:55.639Z,6.13
2023-07-03T03:35:42.145Z,4.60
2023-07-03T03:38:28.584Z,5.45
2023-07-03T03:41:16.293Z,6.10
2023-07-03T03:44:04.689Z,5.10
2023-07-03T03:46:53.783Z,5.38
2023-07-03T03:49:40.556Z,4.13
2023-07-03T03:52:27.108Z,5.60
2023-07-03T03:55:13.701Z,6.45
2023-07-03T03:58:01.007Z,5.18
2023-07-03T04:00:47.697Z,6.03
2023-07-03T04:03:33.888Z,5.53
2023-07-03T04:06:20.572Z,6.75
2023-07-03T04:09:06.751Z,5.70
2023-07-03T04:11:53.012Z,5.90
2023-07-03T04:14:43.955Z,4.95
2023-07-03T04:17:29.842Z,4.93
2023-07-03T04:20:18.804Z,5.68
2023-07-03T04:23:04.754Z,6.20
2023-07-03T04:25:52.724Z,5.75
2023-07-03T04:28:39.085Z,7.13
2023-07-03T04:31:26.606Z,6.68
2023-07-03T04:34:12.863Z,5.80
2023-07-03T04:36:59.117Z,6.30
2023-07-03T04:39:48.037Z,5.30
2023-07-03T04:42:34.112Z,5.65
2023-07-03T04:45:22.485Z,5.70
2023-07-03T04:48:10.216Z,6.50
2023-07-03T04:50:56.779Z,7.28
2023-07-03T04:53:43.221Z,6.05
2023-07-03T04:56:30.174Z,6.20
2023-07-03T04:59:16.586Z,6.10
2023-07-03T05:02:03.000Z,7.20
2023-07-03T05:04:50.451Z,5.32
2023-07-03T05:07:36.762Z,8.40
2023-07-03T05:10:23.993Z,5.05
2023-07-03T05:13:10.053Z,7.28
2023-07-03T05:15:56.896Z,6.40
2023-07-03T05:18:43.197Z,6.68
2023-07-03T05:21:30.612Z,5.47
2023-07-03T05:24:16.709Z,7.30
2023-07-03T05:27:02.799Z,5.20
2023-07-03T05:29:48.921Z,5.40
2023-07-03T05:32:35.681Z,8.23
2023-07-03T05:35:21.846Z,6.93
2023-07-03T05:38:09.057Z,7.63
2023-07-03T05:40:55.804Z,7.60
2023-07-03T05:43:41.958Z,8.43
2023-07-03T05:46:27.868Z,7.90
2023-07-03T05:49:13.710Z,6.53
2023-07-03T05:51:59.758Z,7.05
2023-07-03T05:54:47.486Z,6.78
2023-07-03T05:57:33.626Z,9.32
2023-07-03T06:00:20.032Z,8.73
2023-07-03T06:03:06.410Z,7.68
2023-07-03T06:05:53.075Z,7.57
2023-07-03T06:08:39.412Z,7.78
2023-07-03T06:11:26.573Z,6.88
2023-07-03T06:14:16.547Z,6.80
2023-07-03T06:17:03.062Z,6.25
2023-07-03T06:19:48.965Z,7.30
2023-07-03T06:22:35.062Z,8.82
2023-07-03T06:25:20.866Z,7.72
2023-07-03T06:28:08.745Z,7.40
2023-07-03T06:30:55.323Z,6.68
2023-07-03T06:33:41.449Z,8.60
2023-07-03T06:36:27.516Z,9.05
2023-07-03T06:39:13.804Z,10.15
2023-07-03T06:41:59.725Z,7.93
2023-07-03T06:44:47.626Z,8.77
2023-07-03T06:47:33.754Z,9.15
2023-07-03T06:50:19.954Z,9.15
2023-07-03T06:53:06.205Z,9.35
2023-07-03T06:55:59.133Z,9.02
2023-07-03T06:58:45.721Z,8.55
2023-07-03T07:01:33.424Z,8.75
2023-07-03T07:04:20.004Z,10.77
2023-07-03T07:07:06.435Z,9.13
2023-07-03T07:09:52.331Z,10.65
2023-07-03T07:12:38.415Z,10.55
2023-07-03T07:15:24.604Z,9.25
2023-07-03T07:18:12.261Z,8.10
2023-07-03T07:20:58.333Z,9.93
2023-07-03T07:23:44.483Z,9.23
2023-07-03T07:26:34.521Z,10.30
2023-07-03T07:29:20.137Z,9.88
2023-07-03T07:32:06.935Z,10.52
2023-07-03T07:34:54.604Z,7.10
2023-07-03T07:37:41.006Z,9.63
2023-07-03T07:40:26.993Z,10.95
2023-07-03T07:43:14.225Z,11.80
2023-07-03T07:46:00.277Z,10.30
2023-07-03T07:48:48.893Z,9.50
2023-07-03T07:51:36.465Z,9.30
2023-07-03T07:54:22.382Z,10.82
2023-07-03T07:57:08.638Z,10.52
2023-07-03T07:59:54.573Z,10.70
2023-07-03T08:02:40.588Z,10.18
2023-07-03T08:05:27.030Z,10.88
2023-07-03T08:08:14.503Z,10.25
2023-07-03T08:11:01.860Z,11.07
2023-07-03T08:13:48.065Z,10.35
2023-07-03T08:16:34.383Z,12.18
2023-07-03T08:19:20.409Z,10.93
2023-07-03T08:22:06.989Z,9.75
2023-07-03T08:24:54.414Z,10.93
2023-07-03T08:27:40.366Z,13.02
2023-07-03T08:30:26.706Z,11.40
2023-07-03T08:33:13.888Z,12.02
2023-07-03T08:38:50.079Z,14.68
2023-07-03T08:41:42.237Z,11.73
2023-07-03T08:44:28.219Z,12.13
2023-07-03T08:47:17.648Z,11.10
2023-07-03T08:50:07.234Z,9.23
2023-07-03T08:52:58.305Z,14.43
2023-07-03T08:55:47.826Z,13.27
2023-07-03T08:58:35.379Z,12.57
2023-07-03T09:01:26.455Z,13.98
2023-07-03T09:07:03.572Z,11.00
2023-07-03T09:09:52.619Z,12.25
2023-07-03T09:12:41.353Z,12.55
2023-07-03T09:15:31.560Z,13.27
2023-07-03T09:18:19.773Z,14.60
2023-07-03T09:21:05.850Z,17.40
2023-07-03T09:23:54.898Z,17.75
2023-07-03T09:26:45.530Z,18.73
2023-07-03T09:29:34.009Z,13.30
2023-07-03T09:32:27.605Z,15.52
2023-07-03T09:35:16.853Z,20.40
2023-07-03T09:38:06.103Z,15.02
2023-07-03T09:40:56.969Z,18.55
2023-07-03T09:43:45.587Z,18.80
2023-07-03T09:46:31.707Z,19.05
2023-07-03T09:49:24.050Z,19.20
2023-07-03T09:52:10.268Z,18.90
2023-07-03T09:55:01.126Z,20.38
2023-07-03T09:57:47.157Z,22.88
2023-07-03T10:00:33.122Z,20.58
2023-07-03T10:12:03.472Z,22.55
2023-07-03T10:14:54.029Z,22.88
2023-07-03T10:17:43.041Z,17.45
2023-07-03T10:20:33.636Z,18.88
2023-07-03T10:23:24.227Z,17.33
2023-07-03T10:26:13.241Z,18.55
2023-07-03T10:29:09.957Z,16.58
2023-07-03T10:31:59.444Z,16.15
2023-07-03T10:34:55.405Z,18.10
2023-07-03T10:37:46.829Z,16.85
2023-07-03T10:40:38.972Z,15.77
2023-07-03T10:43:26.539Z,20.02
2023-07-03T10:46:19.825Z,15.02
2023-07-03T10:49:08.350Z,17.45
2023-07-03T10:52:02.465Z,21.38
2023-07-03T10:54:56.806Z,16.80
2023-07-03T10:57:50.958Z,18.27
2023-07-03T11:00:43.518Z,17.77
2023-07-03T11:03:35.093Z,15.95
2023-07-03T11:06:26.213Z,18.30
2023-07-03T11:09:15.561Z,16.23
2023-07-03T11:12:07.216Z,21.08
2023-07-03T11:15:08.532Z,18.60
2023-07-03T11:23:50.240Z,19.98
2023-07-03T11:29:29.374Z,19.42
2023-07-03T11:32:17.594Z,20.75
2023-07-03T11:44:19.522Z,17.25
2023-07-03T11:49:59.915Z,15.95
2023-07-03T11:52:49.001Z,14.80
2023-07-03T11:55:37.522Z,18.45
2023-07-03T11:58:26.613Z,17.10
2023-07-03T12:01:31.902Z,21.33
2023-07-03T12:04:51.406Z,19.90
2023-07-03T12:07:51.784Z,23.25
2023-07-03T12:10:47.889Z,19.05
2023-07-03T12:13:52.284Z,20.42
2023-07-03T12:16:45.777Z,23.70
2023-07-03T12:19:32.950Z,24.80
2023-07-03T12:22:21.441Z,21.08
2023-07-03T12:25:10.855Z,20.98
2023-07-03T12:28:09.411Z,23.13
2023-07-03T12:31:10.325Z,22.95
2023-07-03T12:33:58.974Z,19.25
2023-07-03T12:36:50.534Z,19.50
2023-07-03T12:39:36.771Z,19.42
2023-07-03T12:42:26.114Z,21.70
2023-07-03T12:45:15.687Z,25.53
2023-07-03T12:48:03.242Z,27.00
2023-07-03T12:50:50.874Z,26.00
2023-07-03T12:53:38.595Z,20.98
2023-07-03T12:56:24.497Z,21.67
2023-07-03T12:59:13.743Z,21.42
2023-07-03T13:02:00.235Z,21.30
2023-07-03T13:04:46.544Z,21.73
2023-07-03T13:07:32.960Z,23.05
2023-07-03T13:10:20.436Z,21.75
2023-07-03T13:13:09.263Z,22.00
2023-07-03T13:15:56.674Z,25.73
2023-07-03T13:18:59.531Z,21.83
2023-07-03T13:21:51.755Z,21.88
2023-07-03T13:24:44.979Z,19.63
2023-07-03T13:27:31.428Z,24.20
2023-07-03T13:30:21.107Z,21.42
2023-07-03T13:33:10.292Z,23.45
2023-07-03T13:35:56.943Z,24.00
2023-07-03T13:38:42.865Z,24.88
2023-07-03T13:41:28.748Z,23.23
2023-07-03T13:44:16.505Z,23.42
2023-07-03T13:47:02.597Z,18.48
2023-07-03T13:49:49.687Z,17.15
2023-07-03T13:52:38.058Z,19.83
2023-07-03T13:55:24.254Z,19.92
2023-07-03T13:58:10.410Z,18.30
2023-07-03T14:00:56.684Z,15.77
2023-07-03T14:03:45.443Z,19.40
2023-07-03T14:06:34.190Z,16.55
2023-07-03T14:09:21.114Z,21.00
2023-07-03T14:12:07.874Z,21.55
2023-07-03T14:14:54.189Z,20.58
2023-07-03T14:17:40.004Z,19.05
2023-07-03T14:20:26.383Z,19.40
2023-07-03T14:23:13.634Z,19.98
2023-07-03T14:25:59.960Z,17.70
2023-07-03T14:28:47.315Z,17.40
2023-07-03T14:31:33.993Z,17.20
2023-07-03T14:34:20.145Z,16.13
2023-07-03T14:37:06.483Z,17.45
2023-07-03T14:39:53.707Z,17.52
2023-07-03T14:42:39.912Z,16.27
2023-07-03T14:45:26.098Z,19.30
2023-07-03T14:48:12.358Z,21.15
2023-07-03T14:50:59.985Z,17.83
2023-07-03T14:53:46.213Z,18.25
2023-07-03T14:56:33.367Z,15.80
2023-07-03T14:59:19.614Z,17.63
2023-07-03T15:02:06.212Z,17.58
2023-07-03T15:04:52.246Z,16.10
2023-07-03T15:07:38.087Z,14.88
2023-07-03T15:10:24.205Z,16.10
2023-07-03T15:13:11.427Z,14.68
2023-07-03T15:15:57.748Z,13.10
2023-07-03T15:18:43.944Z,14.60
2023-07-03T15:21:29.892Z,15.15
2023-07-03T15:24:18.291Z,17.63
2023-07-03T15:27:06.132Z,13.40
2023-07-03T15:29:54.030Z,12.32
2023-07-03T15:32:40.161Z,15.05
2023-07-03T15:35:26.795Z,14.25
2023-07-03T15:38:12.875Z,16.25
2023-07-03T15:41:00.368Z,16.67
2023-07-03T15:43:48.722Z,15.98
2023-07-03T15:46:36.544Z,13.02
2023-07-03T15:49:22.531Z,14.60
2023-07-03T15:52:09.274Z,16.52
2023-07-03T15:54:55.770Z,14.93
2023-07-03T15:57:41.913Z,18.13
2023-07-03T16:00:28.025Z,17.30
2023-07-03T16:03:15.323Z,18.35
2023-07-03T16:06:03.299Z,16.05
2023-07-03T16:08:51.362Z,14.57
2023-07-03T16:11:38.279Z,18.20
2023-07-03T16:14:24.847Z,17.15
2023-07-03T16:17:11.022Z,18.50
2023-07-03T16:20:09.675Z,16.80
2023-07-03T16:22:57.032Z,14.57
2023-07-03T16:25:50.250Z,19.02
2023-07-03T16:28:37.868Z,15.90
2023-07-03T16:31:25.117Z,17.33
2023-07-03T16:34:11.765Z,13.23
2023-07-03T16:36:59.115Z,16.73
2023-07-03T16:39:45.341Z,16.60
2023-07-03T16:42:31.509Z,16.48
2023-07-03T16:45:17.970Z,20.65
2023-07-03T16:48:04.542Z,15.75
2023-07-03T16:50:54.764Z,16.80
2023-07-03T16:53:43.309Z,15.55
2023-07-03T16:56:29.820Z,15.02
2023-07-03T16:59:16.393Z,15.48
2023-07-03T17:02:02.217Z,16.55
2023-07-03T17:04:48.248Z,12.93
2023-07-03T17:07:34.600Z,15.55
2023-07-03T17:10:21.798Z,13.57
2023-07-03T17:13:08.207Z,14.57
2023-07-03T17:15:54.724Z,13.18
2023-07-03T17:18:41.241Z,16.20
2023-07-03T17:21:27.595Z,11.98
2023-07-03T17:24:13.867Z,17.45
2023-07-03T17:27:01.203Z,14.88
2023-07-03T17:29:47.521Z,14.55
2023-07-03T17:32:34.159Z,15.30
2023-07-03T17:35:20.598Z,14.10
2023-07-03T17:38:07.257Z,11.25
2023-07-03T17:40:53.239Z,12.55
2023-07-03T17:43:40.654Z,12.93
2023-07-03T17:46:27.125Z,13.93
2023-07-03T17:49:13.651Z,13.57
2023-07-03T17:51:59.770Z,16.63
2023-07-03T17:54:45.917Z,14.35
2023-07-03T17:57:32.541Z,15.70
2023-07-03T18:00:20.166Z,11.82
2023-07-03T18:03:06.333Z,13.43
2023-07-03T18:05:55.617Z,17.20
2023-07-03T18:08:41.788Z,14.32
2023-07-03T18:11:28.300Z,11.73
2023-07-03T18:14:14.519Z,11.68
2023-07-03T18:17:02.485Z,14.35
2023-07-03T18:19:48.456Z,14.18
2023-07-03T18:22:34.511Z,14.80
2023-07-03T18:25:20.943Z,16.95
2023-07-03T18:28:07.778Z,12.50
2023-07-03T18:30:58.403Z,16.40
2023-07-03T18:33:47.389Z,12.75
2023-07-03T18:36:33.775Z,12.50
2023-07-03T18:39:20.100Z,15.48
2023-07-03T18:42:06.811Z,14.48
2023-07-03T18:44:53.210Z,13.10
2023-07-03T18:47:40.454Z,15.18
2023-07-03T18:50:28.325Z,12.07
2023-07-03T18:53:14.449Z,11.40
2023-07-03T18:56:00.635Z,10.52
2023-07-03T18:58:47.077Z,10.20
2023-07-03T19:01:35.313Z,13.13
2023-07-03T19:04:22.080Z,11.20
2023-07-03T19:07:09.869Z,12.63
2023-07-03T19:10:08.150Z,14.50
2023-07-03T19:13:03.089Z,12.57
2023-07-03T19:15:49.102Z,12.68
2023-07-03T19:18:35.772Z,12.35
2023-07-03T19:21:21.859Z,10.50
2023-07-03T19:24:09.233Z,11.35
2023-07-03T19:26:55.491Z,11.13
2023-07-03T19:29:41.522Z,9.93
2023-07-03T19:32:28.438Z,13.15
2023-07-03T19:35:14.777Z,11.70
2023-07-03T19:38:00.674Z,11.02
2023-07-03T19:40:47.905Z,11.25
2023-07-03T19:43:33.769Z,12.23
2023-07-03T19:46:19.848Z,10.48
2023-07-03T19:49:06.216Z,10.20
2023-07-03T19:51:52.591Z,9.82
2023-07-03T19:54:38.824Z,12.70
2023-07-03T19:57:26.010Z,9.25
2023-07-03T20:00:12.621Z,9.73
2023-07-03T20:02:58.996Z,11.18
2023-07-03T20:05:46.391Z,9.82
2023-07-03T20:08:33.253Z,10.43
2023-07-03T20:11:20.513Z,12.10
2023-07-03T20:14:07.881Z,8.55
2023-07-03T20:16:53.916Z,11.45
2023-07-03T20:19:40.385Z,9.88
2023-07-03T20:22:26.276Z,9.75
2023-07-03T20:25:12.488Z,8.90
2023-07-03T20:27:58.341Z,9.35
2023-07-03T20:30:48.976Z,9.02
2023-07-03T20:33:35.320Z,8.07
2023-07-03T20:36:21.619Z,9.25
2023-07-03T20:39:08.274Z,9.40
2023-07-03T20:41:54.424Z,9.50
2023-07-03T20:44:42.397Z,7.38
2023-07-03T20:47:31.752Z,8.80
2023-07-03T20:50:18.141Z,9.65
2023-07-03T20:53:11.051Z,10.82
2023-07-03T20:56:08.915Z,7.03
2023-07-03T20:58:56.473Z,9.68
2023-07-03T21:01:43.874Z,9.00
2023-07-03T21:04:31.372Z,8.32
2023-07-03T21:07:17.435Z,7.90
2023-07-03T21:10:03.995Z,7.95
2023-07-03T21:12:50.125Z,9.18
2023-07-03T21:15:36.044Z,8.43
2023-07-03T21:18:21.960Z,7.82
2023-07-03T21:21:14.072Z,8.23
2023-07-03T21:24:00.789Z,8.32
2023-07-03T21:26:46.735Z,6.95
2023-07-03T21:29:33.064Z,6.18
2023-07-03T21:32:18.972Z,8.13
2023-07-03T21:35:05.978Z,9.00
2023-07-03T21:37:53.323Z,9.35
2023-07-03T21:40:39.220Z,9.88
2023-07-03T21:43:25.905Z,6.82
2023-07-03T21:46:14.434Z,8.70
2023-07-03T21:49:00.913Z,9.13
2023-07-03T21:51:47.498Z,8.05
2023-07-03T21:54:34.699Z,9.25
2023-07-03T21:57:20.559Z,6.95
2023-07-03T22:00:14.002Z,8.70
2023-07-03T22:03:03.145Z,7.00
2023-07-03T22:05:49.611Z,8.48
2023-07-03T22:08:35.823Z,7.25
2023-07-03T22:11:23.373Z,8.52
2023-07-03T22:14:10.306Z,7.47
2023-07-03T22:16:57.316Z,6.05
2023-07-03T22:19:44.392Z,7.85
2023-07-03T22:22:30.817Z,7.80
2023-07-03T22:25:17.156Z,7.68
2023-07-03T22:28:04.706Z,7.10
2023-07-03T22:30:50.881Z,7.95
2023-07-03T22:33:37.473Z,6.72
2023-07-03T22:36:23.756Z,7.10
2023-07-03T22:39:10.035Z,6.65
2023-07-03T22:41:56.148Z,6.15
2023-07-03T22:44:43.362Z,6.70
2023-07-03T22:47:30.450Z,6.30
2023-07-03T22:50:16.956Z,8.02
2023-07-03T22:53:03.129Z,8.60
2023-07-03T22:55:49.221Z,7.15
2023-07-03T22:58:35.679Z,7.05
2023-07-03T23:01:23.471Z,7.10
2023-07-03T23:04:09.484Z,7.00
2023-07-03T23:06:55.558Z,7.90
2023-07-03T23:09:43.998Z,10.82
2023-07-03T23:12:30.631Z,7.47
2023-07-03T23:15:16.773Z,7.97
2023-07-03T23:18:04.448Z,6.35
2023-07-03T23:20:55.166Z,7.32
2023-07-03T23:23:41.397Z,9.07
2023-07-03T23:26:27.673Z,6.55
2023-07-03T23:29:13.588Z,8.38
2023-07-03T23:31:59.490Z,6.82
2023-07-03T23:34:48.384Z,8.48
2023-07-03T23:37:34.567Z,8.35
2023-07-03T23:40:20.452Z,8.32
2023-07-03T23:43:06.627Z,8.60
2023-07-03T23:45:53.772Z,9.60
2023-07-03T23:48:41.448Z,9.05
2023-07-03T23:51:30.325Z,7.68
2023-07-03T23:54:16.470Z,8.75
2023-07-03T23:57:02.953Z,7.55
2023-07-03T23:59:49.356Z,7.20
